sensor_id;sensor_type;location;lat;lon;timestamp;pressure;altitude;pressure_sealevel;temperature;humidity
67038;BME280;53940;53.204;6.590;2022-11-02T00:02:46;101108.09;;;21.09;54.18
67038;BME280;53940;53.204;6.590;2022-11-02T00:05:46;101106.53;;;21.06;54.39
67038;BME280;53940;53.204;6.590;2022-11-02T00:08:46;101106.53;;;21.06;54.32
67038;BME280;53940;53.204;6.590;2022-11-02T00:11:47;101119.25;;;21.04;54.50
67038;BME280;53940;53.204;6.590;2022-11-02T00:14:47;101117.56;;;21.03;54.27
67038;BME280;53940;53.204;6.590;2022-11-02T00:17:49;101112.19;;;21.03;54.30
67038;BME280;53940;53.204;6.590;2022-11-02T00:20:50;101132.91;;;21.01;54.31
67038;BME280;53940;53.204;6.590;2022-11-02T00:23:52;101142.91;;;20.99;54.59
67038;BME280;53940;53.204;6.590;2022-11-02T00:26:53;101134.88;;;20.99;54.33
67038;BME280;53940;53.204;6.590;2022-11-02T00:29:54;101146.56;;;20.98;54.33
67038;BME280;53940;53.204;6.590;2022-11-02T00:32:54;101154.75;;;20.96;54.21
67038;BME280;53940;53.204;6.590;2022-11-02T00:35:54;101169.94;;;20.96;54.30
67038;BME280;53940;53.204;6.590;2022-11-02T00:38:55;101162.91;;;20.95;54.26
67038;BME280;53940;53.204;6.590;2022-11-02T00:41:55;101156.84;;;20.93;54.41
67038;BME280;53940;53.204;6.590;2022-11-02T00:44:56;101148.94;;;20.91;54.45
67038;BME280;53940;53.204;6.590;2022-11-02T00:47:56;101133.84;;;20.90;54.16
67038;BME280;53940;53.204;6.590;2022-11-02T00:50:56;101127.63;;;20.90;54.27
67038;BME280;53940;53.204;6.590;2022-11-02T00:53:57;101109.84;;;20.89;54.25
67038;BME280;53940;53.204;6.590;2022-11-02T00:56:57;101107.34;;;20.87;54.32
67038;BME280;53940;53.204;6.590;2022-11-02T00:59:57;101111.84;;;20.86;54.23
67038;BME280;53940;53.204;6.590;2022-11-02T01:02:59;101113.81;;;20.84;54.12
67038;BME280;53940;53.204;6.590;2022-11-02T01:06:10;101112.06;;;20.83;54.43
67038;BME280;53940;53.204;6.590;2022-11-02T01:09:13;101102.19;;;20.84;54.14
67038;BME280;53940;53.204;6.590;2022-11-02T01:12:13;101100.63;;;20.81;54.13
67038;BME280;53940;53.204;6.590;2022-11-02T01:15:14;101099.81;;;20.81;54.33
67038;BME280;53940;53.204;6.590;2022-11-02T01:18:14;101101.63;;;20.80;54.41
67038;BME280;53940;53.204;6.590;2022-11-02T01:21:15;101092.88;;;20.78;54.43
67038;BME280;53940;53.204;6.590;2022-11-02T01:24:15;101091.16;;;20.77;54.22
67038;BME280;53940;53.204;6.590;2022-11-02T01:27:15;101096.53;;;20.77;54.33
67038;BME280;53940;53.204;6.590;2022-11-02T01:30:16;101086.78;;;20.76;54.00
67038;BME280;53940;53.204;6.590;2022-11-02T01:33:16;101097.66;;;20.74;54.20
67038;BME280;53940;53.204;6.590;2022-11-02T01:36:17;101096.94;;;20.72;54.03
67038;BME280;53940;53.204;6.590;2022-11-02T01:39:20;101078.19;;;20.72;53.88
67038;BME280;53940;53.204;6.590;2022-11-02T01:42:23;101084.53;;;20.71;54.00
67038;BME280;53940;53.204;6.590;2022-11-02T01:45:23;101086.34;;;20.71;54.11
67038;BME280;53940;53.204;6.590;2022-11-02T01:48:32;101088.31;;;20.69;53.83
67038;BME280;53940;53.204;6.590;2022-11-02T01:55:31;101091.97;;;20.68;54.15
67038;BME280;53940;53.204;6.590;2022-11-02T01:58:33;101101.84;;;20.67;54.00
67038;BME280;53940;53.204;6.590;2022-11-02T02:01:34;101089.44;;;20.66;53.75
67038;BME280;53940;53.204;6.590;2022-11-02T02:04:35;101099.31;;;20.66;53.83
67038;BME280;53940;53.204;6.590;2022-11-02T02:07:37;101125.22;;;20.65;53.84
67038;BME280;53940;53.204;6.590;2022-11-02T02:10:38;101108.31;;;20.65;53.71
67038;BME280;53940;53.204;6.590;2022-11-02T02:13:39;101092.22;;;20.65;53.92
67038;BME280;53940;53.204;6.590;2022-11-02T02:23:18;101018.53;;;20.60;53.68
67038;BME280;53940;53.204;6.590;2022-11-02T02:26:37;101045.31;;;20.60;53.61
67038;BME280;53940;53.204;6.590;2022-11-02T02:29:48;101059.53;;;20.61;53.52
67038;BME280;53940;53.204;6.590;2022-11-02T02:33:06;101057.97;;;20.58;53.50
67038;BME280;53940;53.204;6.590;2022-11-02T02:36:19;101052.59;;;20.58;53.50
67038;BME280;53940;53.204;6.590;2022-11-02T02:39:41;101044.56;;;20.58;53.59
67038;BME280;53940;53.204;6.590;2022-11-02T02:42:54;101041.19;;;20.56;53.38
67038;BME280;53940;53.204;6.590;2022-11-02T02:46:05;101046.53;;;20.56;53.39
67038;BME280;53940;53.204;6.590;2022-11-02T02:49:10;101050.09;;;20.57;53.50
67038;BME280;53940;53.204;6.590;2022-11-02T02:52:13;101041.19;;;20.56;53.44
67038;BME280;53940;53.204;6.590;2022-11-02T02:55:18;101020.75;;;20.55;53.64
67038;BME280;53940;53.204;6.590;2022-11-02T02:58:23;101034.16;;;20.55;53.29
67038;BME280;53940;53.204;6.590;2022-11-02T03:01:25;101031.47;;;20.55;53.38
67038;BME280;53940;53.204;6.590;2022-11-02T03:04:26;101026.09;;;20.55;53.40
67038;BME280;53940;53.204;6.590;2022-11-02T03:07:32;101028.78;;;20.55;53.28
67038;BME280;53940;53.204;6.590;2022-11-02T03:10:41;101032.44;;;20.54;53.49
67038;BME280;53940;53.204;6.590;2022-11-02T03:17:24;101035.84;;;20.56;53.50
67038;BME280;53940;53.204;6.590;2022-11-02T03:23:54;101030.47;;;20.56;53.64
67038;BME280;53940;53.204;6.590;2022-11-02T03:27:31;101033.16;;;20.56;53.49
67038;BME280;53940;53.204;6.590;2022-11-02T03:30:30;101030.22;;;20.59;53.54
67038;BME280;53940;53.204;6.590;2022-11-02T03:33:42;101028.25;;;20.62;53.44
67038;BME280;53940;53.204;6.590;2022-11-02T03:37:10;101029.94;;;20.63;53.15
67038;BME280;53940;53.204;6.590;2022-11-02T03:40:14;101020.09;;;20.63;53.13
67038;BME280;53940;53.204;6.590;2022-11-02T03:43:18;101022.59;;;20.65;53.32
67038;BME280;53940;53.204;6.590;2022-11-02T03:46:21;101016.13;;;20.67;53.35
67038;BME280;53940;53.204;6.590;2022-11-02T03:49:22;101024.03;;;20.69;53.29
67038;BME280;53940;53.204;6.590;2022-11-02T03:52:26;101031.09;;;20.70;53.03
67038;BME280;53940;53.204;6.590;2022-11-02T03:55:32;101027.44;;;20.71;53.04
67038;BME280;53940;53.204;6.590;2022-11-02T03:58:35;101039.69;;;20.73;53.27
67038;BME280;53940;53.204;6.590;2022-11-02T04:01:38;101039.56;;;20.75;53.14
67038;BME280;53940;53.204;6.590;2022-11-02T04:04:47;101055.66;;;20.75;53.06
67038;BME280;53940;53.204;6.590;2022-11-02T04:07:50;101051.00;;;20.77;53.06
67038;BME280;53940;53.204;6.590;2022-11-02T04:11:11;101044.69;;;20.78;53.00
67038;BME280;53940;53.204;6.590;2022-11-02T04:14:30;101048.91;;;20.81;53.06
67038;BME280;53940;53.204;6.590;2022-11-02T04:17:36;101053.41;;;20.80;52.67
67038;BME280;53940;53.204;6.590;2022-11-02T04:20:55;101068.38;;;20.83;52.80
67038;BME280;53940;53.204;6.590;2022-11-02T04:23:56;101071.88;;;20.83;52.92
67038;BME280;53940;53.204;6.590;2022-11-02T04:27:15;101074.34;;;20.86;52.66
67038;BME280;53940;53.204;6.590;2022-11-02T04:30:18;101087.59;;;20.88;52.65
67038;BME280;53940;53.204;6.590;2022-11-02T04:33:18;101091.97;;;20.89;52.76
67038;BME280;53940;53.204;6.590;2022-11-02T04:36:34;101089.16;;;20.91;52.82
67038;BME280;53940;53.204;6.590;2022-11-02T04:39:34;101093.53;;;20.92;52.67
67038;BME280;53940;53.204;6.590;2022-11-02T04:42:34;101105.94;;;20.93;52.50
67038;BME280;53940;53.204;6.590;2022-11-02T04:45:35;101113.00;;;20.94;52.62
67038;BME280;53940;53.204;6.590;2022-11-02T04:48:35;101113.69;;;20.96;52.58
67038;BME280;53940;53.204;6.590;2022-11-02T04:51:36;101105.53;;;20.97;52.81
67038;BME280;53940;53.204;6.590;2022-11-02T04:54:39;101105.53;;;20.97;52.81
67038;BME280;53940;53.204;6.590;2022-11-02T04:57:43;101114.44;;;20.98;52.86
67038;BME280;53940;53.204;6.590;2022-11-02T05:00:44;101105.28;;;21.00;52.55
67038;BME280;53940;53.204;6.590;2022-11-02T05:03:48;101112.31;;;21.02;52.79
67038;BME280;53940;53.204;6.590;2022-11-02T05:06:49;101112.31;;;21.02;52.65
67038;BME280;53940;53.204;6.590;2022-11-02T05:09:49;101111.34;;;21.03;52.63
67038;BME280;53940;53.204;6.590;2022-11-02T05:12:56;101116.56;;;21.04;52.75
67038;BME280;53940;53.204;6.590;2022-11-02T05:15:58;101119.25;;;21.04;52.84
67038;BME280;53940;53.204;6.590;2022-11-02T05:18:58;101113.75;;;21.06;52.89
67038;BME280;53940;53.204;6.590;2022-11-02T05:21:59;101117.25;;;21.06;52.89
67038;BME280;53940;53.204;6.590;2022-11-02T05:24:59;101115.28;;;21.08;52.92
67038;BME280;53940;53.204;6.590;2022-11-02T05:27:59;101113.59;;;21.07;52.65
67038;BME280;53940;53.204;6.590;2022-11-02T05:31:00;101129.69;;;21.07;52.52
67038;BME280;53940;53.204;6.590;2022-11-02T05:34:01;101130.53;;;21.08;52.55
67038;BME280;53940;53.204;6.590;2022-11-02T05:37:01;101127.72;;;21.09;52.71
67038;BME280;53940;53.204;6.590;2022-11-02T05:40:02;101133.09;;;21.09;52.67
67038;BME280;53940;53.204;6.590;2022-11-02T05:43:03;101140.13;;;21.10;52.66
67038;BME280;53940;53.204;6.590;2022-11-02T05:46:03;101137.47;;;21.10;52.60
67038;BME280;53940;53.204;6.590;2022-11-02T05:49:04;101136.47;;;21.11;52.59
67038;BME280;53940;53.204;6.590;2022-11-02T05:52:04;101140.13;;;21.10;52.70
67038;BME280;53940;53.204;6.590;2022-11-02T05:55:05;101136.47;;;21.11;52.57
67038;BME280;53940;53.204;6.590;2022-11-02T05:58:05;101144.38;;;21.13;52.49
67038;BME280;53940;53.204;6.590;2022-11-02T06:01:07;101150.56;;;21.13;52.84
67038;BME280;53940;53.204;6.590;2022-11-02T06:04:08;101138.16;;;21.12;52.50
67038;BME280;53940;53.204;6.590;2022-11-02T06:07:08;101140.72;;;21.14;52.60
67038;BME280;53940;53.204;6.590;2022-11-02T06:10:08;101142.53;;;21.13;52.76
67038;BME280;53940;53.204;6.590;2022-11-02T06:13:09;101148.75;;;21.14;52.78
67038;BME280;53940;53.204;6.590;2022-11-02T06:16:10;101153.25;;;21.13;52.77
67038;BME280;53940;53.204;6.590;2022-11-02T06:19:11;101164.72;;;21.16;52.70
67038;BME280;53940;53.204;6.590;2022-11-02T06:22:11;101173.69;;;21.14;52.56
67038;BME280;53940;53.204;6.590;2022-11-02T06:25:12;101171.75;;;21.17;52.77
67038;BME280;53940;53.204;6.590;2022-11-02T06:28:13;101180.78;;;21.16;52.48
67038;BME280;53940;53.204;6.590;2022-11-02T06:31:13;101186.16;;;21.16;52.81
67038;BME280;53940;53.204;6.590;2022-11-02T06:34:16;101186.16;;;21.16;52.61
67038;BME280;53940;53.204;6.590;2022-11-02T06:37:16;101186.16;;;21.16;52.63
67038;BME280;53940;53.204;6.590;2022-11-02T06:40:17;101201.25;;;21.17;52.72
67038;BME280;53940;53.204;6.590;2022-11-02T06:43:17;101210.13;;;21.17;52.82
67038;BME280;53940;53.204;6.590;2022-11-02T06:46:17;101218.31;;;21.16;52.70
67038;BME280;53940;53.204;6.590;2022-11-02T06:49:19;101221.69;;;21.18;52.51
67038;BME280;53940;53.204;6.590;2022-11-02T06:52:19;101230.59;;;21.18;52.45
67038;BME280;53940;53.204;6.590;2022-11-02T06:55:19;101236.09;;;21.17;52.54
67038;BME280;53940;53.204;6.590;2022-11-02T06:58:20;101241.44;;;21.17;52.60
67038;BME280;53940;53.204;6.590;2022-11-02T07:01:22;101245.94;;;21.16;52.82
67038;BME280;53940;53.204;6.590;2022-11-02T07:04:22;101257.53;;;21.17;52.65
67038;BME280;53940;53.204;6.590;2022-11-02T07:07:22;101256.66;;;21.16;52.74
67038;BME280;53940;53.204;6.590;2022-11-02T07:10:23;101261.91;;;21.18;52.61
67038;BME280;53940;53.204;6.590;2022-11-02T07:13:24;101276.28;;;21.17;52.84
67038;BME280;53940;53.204;6.590;2022-11-02T07:16:24;101290.50;;;21.17;52.50
67038;BME280;53940;53.204;6.590;2022-11-02T07:19:25;101296.75;;;21.18;52.50
67038;BME280;53940;53.204;6.590;2022-11-02T07:22:25;101308.44;;;21.17;52.65
67038;BME280;53940;53.204;6.590;2022-11-02T07:25:27;101315.63;;;21.16;52.72
67038;BME280;53940;53.204;6.590;2022-11-02T07:28:30;101316.50;;;21.17;52.80
67038;BME280;53940;53.204;6.590;2022-11-02T07:31:30;101321.84;;;21.17;52.81
67038;BME280;53940;53.204;6.590;2022-11-02T07:34:31;101326.34;;;21.16;52.76
67038;BME280;53940;53.204;6.590;2022-11-02T07:37:31;101332.56;;;21.17;52.65
67038;BME280;53940;53.204;6.590;2022-11-02T07:40:34;101330.88;;;21.16;52.77
67038;BME280;53940;53.204;6.590;2022-11-02T07:43:34;101342.44;;;21.16;52.77
67038;BME280;53940;53.204;6.590;2022-11-02T07:46:35;101343.28;;;21.17;52.84
67038;BME280;53940;53.204;6.590;2022-11-02T07:49:35;101341.59;;;21.16;52.53
67038;BME280;53940;53.204;6.590;2022-11-02T07:52:42;101351.44;;;21.15;52.59
67038;BME280;53940;53.204;6.590;2022-11-02T07:55:43;101351.44;;;21.15;52.86
67038;BME280;53940;53.204;6.590;2022-11-02T07:58:43;101370.09;;;21.17;52.52
67038;BME280;53940;53.204;6.590;2022-11-02T08:01:43;101366.53;;;21.16;52.36
67038;BME280;53940;53.204;6.590;2022-11-02T08:04:44;101389.84;;;21.16;52.44
67038;BME280;53940;53.204;6.590;2022-11-02T08:07:44;101396.91;;;21.17;52.40
67038;BME280;53940;53.204;6.590;2022-11-02T08:10:46;101407.63;;;21.17;52.52
67038;BME280;53940;53.204;6.590;2022-11-02T08:13:47;101404.94;;;21.17;52.47
67038;BME280;53940;53.204;6.590;2022-11-02T08:16:50;101405.91;;;21.16;52.54
67038;BME280;53940;53.204;6.590;2022-11-02T08:19:51;101418.34;;;21.17;52.48
67038;BME280;53940;53.204;6.590;2022-11-02T08:22:51;101420.03;;;21.18;52.76
67038;BME280;53940;53.204;6.590;2022-11-02T08:25:53;101436.09;;;21.18;52.37
67038;BME280;53940;53.204;6.590;2022-11-02T08:28:53;101425.38;;;21.18;52.71
67038;BME280;53940;53.204;6.590;2022-11-02T08:31:53;101425.38;;;21.18;52.39
67038;BME280;53940;53.204;6.590;2022-11-02T08:34:54;101438.66;;;21.19;52.54
67038;BME280;53940;53.204;6.590;2022-11-02T08:37:55;101443.16;;;21.19;52.67
67038;BME280;53940;53.204;6.590;2022-11-02T08:40:56;101442.19;;;21.20;52.75
67038;BME280;53940;53.204;6.590;2022-11-02T08:43:56;101437.81;;;21.19;52.96
67038;BME280;53940;53.204;6.590;2022-11-02T08:46:58;101441.34;;;21.19;52.88
67038;BME280;53940;53.204;6.590;2022-11-02T08:49:58;101444.03;;;21.19;52.76
67038;BME280;53940;53.204;6.590;2022-11-02T08:52:58;101448.53;;;21.19;53.00
67038;BME280;53940;53.204;6.590;2022-11-02T08:55:58;101462.78;;;21.19;53.03
67038;BME280;53940;53.204;6.590;2022-11-02T08:58:59;101472.53;;;21.20;52.81
67038;BME280;53940;53.204;6.590;2022-11-02T09:01:59;101474.34;;;21.20;52.95
67038;BME280;53940;53.204;6.590;2022-11-02T09:05:00;101483.25;;;21.20;53.00
67038;BME280;53940;53.204;6.590;2022-11-02T09:08:06;101486.06;;;21.19;53.10
67038;BME280;53940;53.204;6.590;2022-11-02T09:11:06;101486.06;;;21.19;52.75
67038;BME280;53940;53.204;6.590;2022-11-02T09:14:06;101499.47;;;21.19;52.80
67038;BME280;53940;53.204;6.590;2022-11-02T09:17:07;101504.81;;;21.19;52.87
67038;BME280;53940;53.204;6.590;2022-11-02T09:20:07;101507.50;;;21.19;52.97
67038;BME280;53940;53.204;6.590;2022-11-02T09:23:08;101511.88;;;21.20;52.92
67038;BME280;53940;53.204;6.590;2022-11-02T09:26:08;101515.41;;;21.20;53.00
67038;BME280;53940;53.204;6.590;2022-11-02T09:29:08;101518.09;;;21.20;53.20
67038;BME280;53940;53.204;6.590;2022-11-02T09:32:09;101529.81;;;21.19;53.18
67038;BME280;53940;53.204;6.590;2022-11-02T09:35:10;101528.69;;;21.22;53.16
67038;BME280;53940;53.204;6.590;2022-11-02T09:38:10;101537.69;;;21.21;52.78
67038;BME280;53940;53.204;6.590;2022-11-02T09:41:14;101543.06;;;21.21;52.87
67038;BME280;53940;53.204;6.590;2022-11-02T09:44:30;101555.50;;;21.22;52.81
67038;BME280;53940;53.204;6.590;2022-11-02T09:47:53;101553.78;;;21.21;52.93
67038;BME280;53940;53.204;6.590;2022-11-02T09:51:16;101556.47;;;21.21;53.05
67038;BME280;53940;53.204;6.590;2022-11-02T09:54:24;101566.22;;;21.22;52.99
67038;BME280;53940;53.204;6.590;2022-11-02T09:57:31;101575.22;;;21.21;52.85
67038;BME280;53940;53.204;6.590;2022-11-02T10:00:34;101580.59;;;21.21;52.95
67038;BME280;53940;53.204;6.590;2022-11-02T10:03:51;101587.78;;;21.20;52.95
67038;BME280;53940;53.204;6.590;2022-11-02T10:07:21;101600.34;;;21.20;52.74
67038;BME280;53940;53.204;6.590;2022-11-02T10:10:32;101608.38;;;21.20;52.71
67038;BME280;53940;53.204;6.590;2022-11-02T10:13:43;101607.66;;;21.18;52.80
67038;BME280;53940;53.204;6.590;2022-11-02T10:19:54;101617.50;;;21.17;53.04
67038;BME280;53940;53.204;6.590;2022-11-02T10:23:00;101627.41;;;21.17;52.87
67038;BME280;53940;53.204;6.590;2022-11-02T10:26:03;101620.34;;;21.16;52.93
67038;BME280;53940;53.204;6.590;2022-11-02T10:29:19;101615.94;;;21.14;52.91
67038;BME280;53940;53.204;6.590;2022-11-02T10:32:22;101622.28;;;21.13;52.72
67038;BME280;53940;53.204;6.590;2022-11-02T10:35:46;101624.94;;;21.13;52.84
67038;BME280;53940;53.204;6.590;2022-11-02T10:48:46;101636.41;;;21.16;53.03
67038;BME280;53940;53.204;6.590;2022-11-02T10:51:48;101642.50;;;21.18;52.73
67038;BME280;53940;53.204;6.590;2022-11-02T10:54:50;101643.00;;;21.23;52.51
67038;BME280;53940;53.204;6.590;2022-11-02T10:57:53;101640.66;;;21.30;52.72
67038;BME280;53940;53.204;6.590;2022-11-02T11:01:08;101646.50;;;21.35;52.42
67038;BME280;53940;53.204;6.590;2022-11-02T11:04:28;101657.81;;;21.38;52.47
67038;BME280;53940;53.204;6.590;2022-11-02T11:07:29;101664.75;;;21.41;52.59
67038;BME280;53940;53.204;6.590;2022-11-02T11:10:36;101668.19;;;21.43;52.42
67038;BME280;53940;53.204;6.590;2022-11-02T11:13:39;101674.28;;;21.45;52.31
67038;BME280;53940;53.204;6.590;2022-11-02T11:16:42;101678.53;;;21.48;52.28
67038;BME280;53940;53.204;6.590;2022-11-02T11:19:51;101685.59;;;21.49;51.99
67038;BME280;53940;53.204;6.590;2022-11-02T11:23:23;101682.06;;;21.48;52.14
67038;BME280;53940;53.204;6.590;2022-11-02T11:26:27;101681.94;;;21.50;52.14
67038;BME280;53940;53.204;6.590;2022-11-02T11:29:31;101691.69;;;21.51;52.07
67038;BME280;53940;53.204;6.590;2022-11-02T11:32:32;101685.38;;;21.52;52.02
67038;BME280;53940;53.204;6.590;2022-11-02T11:35:36;101683.63;;;21.51;51.92
67038;BME280;53940;53.204;6.590;2022-11-02T11:38:45;101688.75;;;21.54;51.88
67038;BME280;53940;53.204;6.590;2022-11-02T11:41:47;101692.28;;;21.54;52.25
67038;BME280;53940;53.204;6.590;2022-11-02T11:45:00;101688.03;;;21.52;52.20
67038;BME280;53940;53.204;6.590;2022-11-02T11:48:08;101693.16;;;21.55;51.99
67038;BME280;53940;53.204;6.590;2022-11-02T11:54:26;101701.19;;;21.55;51.78
67038;BME280;53940;53.204;6.590;2022-11-02T11:57:32;101698.78;;;21.52;51.79
67038;BME280;53940;53.204;6.590;2022-11-02T12:00:33;101693.41;;;21.52;51.85
67038;BME280;53940;53.204;6.590;2022-11-02T12:03:54;101705.97;;;21.51;51.68
67038;BME280;53940;53.204;6.590;2022-11-02T12:14:08;101698.88;;;21.50;52.12
67038;BME280;53940;53.204;6.590;2022-11-02T12:17:33;101703.38;;;21.50;51.99
67038;BME280;53940;53.204;6.590;2022-11-02T12:40:20;101705.34;;;21.48;52.51
67038;BME280;53940;53.204;6.590;2022-11-02T12:43:42;101717.06;;;21.47;52.89
67038;BME280;53940;53.204;6.590;2022-11-02T12:46:56;101706.34;;;21.47;52.58
67038;BME280;53940;53.204;6.590;2022-11-02T12:53:38;101712.69;;;21.46;52.89
67038;BME280;53940;53.204;6.590;2022-11-02T12:56:47;101696.59;;;21.46;52.66
67038;BME280;53940;53.204;6.590;2022-11-02T12:59:51;101707.31;;;21.46;52.76
67038;BME280;53940;53.204;6.590;2022-11-02T13:05:59;101703.06;;;21.43;52.84
67038;BME280;53940;53.204;6.590;2022-11-02T13:09:24;101705.84;;;21.41;53.17
67038;BME280;53940;53.204;6.590;2022-11-02T13:12:30;101705.84;;;21.41;53.14
67038;BME280;53940;53.204;6.590;2022-11-02T13:15:33;101704.97;;;21.41;53.00
67038;BME280;53940;53.204;6.590;2022-11-02T13:18:52;101702.44;;;21.39;52.94
67038;BME280;53940;53.204;6.590;2022-11-02T13:21:55;101697.09;;;21.39;53.18
67038;BME280;53940;53.204;6.590;2022-11-02T13:25:04;101694.53;;;21.38;53.17
67038;BME280;53940;53.204;6.590;2022-11-02T13:28:17;101699.00;;;21.37;52.82
67038;BME280;53940;53.204;6.590;2022-11-02T13:34:40;101709.03;;;21.35;52.97
67038;BME280;53940;53.204;6.590;2022-11-02T13:37:44;101705.47;;;21.35;52.86
67038;BME280;53940;53.204;6.590;2022-11-02T13:41:03;101708.31;;;21.33;52.78
67038;BME280;53940;53.204;6.590;2022-11-02T13:44:16;101696.72;;;21.33;52.98
67038;BME280;53940;53.204;6.590;2022-11-02T13:47:40;101698.69;;;21.31;52.67
67038;BME280;53940;53.204;6.590;2022-11-02T13:50:49;101701.34;;;21.31;52.78
67038;BME280;53940;53.204;6.590;2022-11-02T13:53:55;101705.13;;;21.28;52.66
67038;BME280;53940;53.204;6.590;2022-11-02T13:56:58;101703.44;;;21.27;52.97
67038;BME280;53940;53.204;6.590;2022-11-02T14:00:06;101697.31;;;21.25;52.71
67038;BME280;53940;53.204;6.590;2022-11-02T14:03:48;101700.97;;;21.24;53.04
67038;BME280;53940;53.204;6.590;2022-11-02T14:06:55;101701.97;;;21.23;52.87
67038;BME280;53940;53.204;6.590;2022-11-02T14:10:16;101702.19;;;21.20;52.87
67038;BME280;53940;53.204;6.590;2022-11-02T14:19:54;101705.13;;;21.17;53.09
67038;BME280;53940;53.204;6.590;2022-11-02T14:26:31;101700.88;;;21.14;52.99
67038;BME280;53940;53.204;6.590;2022-11-02T14:32:54;101697.56;;;21.10;53.00
67038;BME280;53940;53.204;6.590;2022-11-02T14:36:09;101698.56;;;21.09;52.78
67038;BME280;53940;53.204;6.590;2022-11-02T14:49:25;101683.78;;;21.04;52.83
67038;BME280;53940;53.204;6.590;2022-11-02T14:52:29;101687.56;;;21.01;52.73
67038;BME280;53940;53.204;6.590;2022-11-02T14:55:32;101695.75;;;20.99;53.08
67038;BME280;53940;53.204;6.590;2022-11-02T14:58:51;101693.19;;;20.98;53.23
67038;BME280;53940;53.204;6.590;2022-11-02T15:01:56;101696.84;;;20.97;52.85
67038;BME280;53940;53.204;6.590;2022-11-02T15:04:59;101703.16;;;20.96;52.91
67038;BME280;53940;53.204;6.590;2022-11-02T15:20:42;101700.97;;;20.90;53.10
67038;BME280;53940;53.204;6.590;2022-11-02T15:23:46;101686.94;;;20.86;53.15
67038;BME280;53940;53.204;6.590;2022-11-02T15:26:51;101683.44;;;20.85;53.34
67038;BME280;53940;53.204;6.590;2022-11-02T15:29:54;101687.09;;;20.84;53.13
67038;BME280;53940;53.204;6.590;2022-11-02T15:33:01;101679.13;;;20.83;53.17
67038;BME280;53940;53.204;6.590;2022-11-02T15:36:05;101678.28;;;20.82;53.15
67038;BME280;53940;53.204;6.590;2022-11-02T15:39:08;101680.22;;;20.80;53.14
67038;BME280;53940;53.204;6.590;2022-11-02T15:42:18;101683.88;;;20.79;52.95
67038;BME280;53940;53.204;6.590;2022-11-02T15:48:44;101684.09;;;20.76;53.22
67038;BME280;53940;53.204;6.590;2022-11-02T15:55:16;101680.72;;;20.74;53.34
67038;BME280;53940;53.204;6.590;2022-11-02T16:02:20;101686.28;;;20.71;53.26
67038;BME280;53940;53.204;6.590;2022-11-02T16:05:24;101685.47;;;20.70;53.39
67038;BME280;53940;53.204;6.590;2022-11-02T16:08:33;101688.25;;;20.69;53.24
67038;BME280;53940;53.204;6.590;2022-11-02T16:11:33;101690.09;;;20.68;53.21
67038;BME280;53940;53.204;6.590;2022-11-02T16:14:35;101690.19;;;20.67;53.16
67038;BME280;53940;53.204;6.590;2022-11-02T16:17:35;101693.72;;;20.67;53.06
67038;BME280;53940;53.204;6.590;2022-11-02T16:20:36;101691.03;;;20.67;53.32
67038;BME280;53940;53.204;6.590;2022-11-02T16:23:50;101689.34;;;20.66;53.27
67038;BME280;53940;53.204;6.590;2022-11-02T16:26:52;101694.81;;;20.65;53.25
67038;BME280;53940;53.204;6.590;2022-11-02T16:29:53;101693.84;;;20.66;53.25
67038;BME280;53940;53.204;6.590;2022-11-02T16:32:59;101678.72;;;20.65;53.20
67038;BME280;53940;53.204;6.590;2022-11-02T16:36:00;101684.94;;;20.65;53.06
67038;BME280;53940;53.204;6.590;2022-11-02T16:39:21;101685.06;;;20.64;53.56
67038;BME280;53940;53.204;6.590;2022-11-02T16:42:24;101681.41;;;20.65;53.18
67038;BME280;53940;53.204;6.590;2022-11-02T16:45:31;101670.84;;;20.63;53.09
67038;BME280;53940;53.204;6.590;2022-11-02T16:48:32;101678.00;;;20.63;53.68
67038;BME280;53940;53.204;6.590;2022-11-02T16:51:32;101684.09;;;20.65;53.28
67038;BME280;53940;53.204;6.590;2022-11-02T16:57:42;101673.38;;;20.65;53.33
67038;BME280;53940;53.204;6.590;2022-11-02T17:03:53;101678.72;;;20.65;53.49
67038;BME280;53940;53.204;6.590;2022-11-02T17:06:57;101666.22;;;20.65;53.33
67038;BME280;53940;53.204;6.590;2022-11-02T17:10:02;101671.56;;;20.65;53.55
67038;BME280;53940;53.204;6.590;2022-11-02T17:13:04;101669.75;;;20.66;53.76
67038;BME280;53940;53.204;6.590;2022-11-02T17:16:10;101671.44;;;20.67;53.61
67038;BME280;53940;53.204;6.590;2022-11-02T17:22:48;101672.44;;;20.66;53.50
67038;BME280;53940;53.204;6.590;2022-11-02T17:25:48;101671.44;;;20.67;53.75
67038;BME280;53940;53.204;6.590;2022-11-02T17:31:55;101670.47;;;20.68;53.65
67038;BME280;53940;53.204;6.590;2022-11-02T17:34:57;101667.78;;;20.68;53.55
67038;BME280;53940;53.204;6.590;2022-11-02T17:37:57;101661.47;;;20.69;53.33
67038;BME280;53940;53.204;6.590;2022-11-02T17:40:58;101666.81;;;20.69;53.67
67038;BME280;53940;53.204;6.590;2022-11-02T17:43:59;101657.81;;;20.70;53.59
67038;BME280;53940;53.204;6.590;2022-11-02T17:47:00;101645.38;;;20.69;53.60
67038;BME280;53940;53.204;6.590;2022-11-02T17:50:00;101647.34;;;20.67;53.34
67038;BME280;53940;53.204;6.590;2022-11-02T17:53:02;101633.84;;;20.68;53.33
67038;BME280;53940;53.204;6.590;2022-11-02T17:56:03;101637.34;;;20.69;53.46
67038;BME280;53940;53.204;6.590;2022-11-02T17:59:03;101640.03;;;20.69;53.52
67038;BME280;53940;53.204;6.590;2022-11-02T18:02:10;101636.63;;;20.67;53.32
67038;BME280;53940;53.204;6.590;2022-11-02T18:08:22;101640.03;;;20.69;53.47
67038;BME280;53940;53.204;6.590;2022-11-02T18:11:22;101630.28;;;20.68;53.49
67038;BME280;53940;53.204;6.590;2022-11-02T18:14:23;101629.44;;;20.67;53.56
67038;BME280;53940;53.204;6.590;2022-11-02T18:17:23;101620.56;;;20.67;53.43
67038;BME280;53940;53.204;6.590;2022-11-02T18:20:24;101619.69;;;20.66;53.47